Time;durP1;ratioP1;P1;durP2;ratioP2;P2;SDS_P1;SDS_P2;PMS_P1;PMS_P2;Temp;Humidity;BMP_temperature;BMP_pressure;BME280_temperature;BME280_humidity;BME280_pressure;Samples;Min_cycle;Max_cycle;Signal;HPM_P1;HPM_P2
2022/05/27 00:00:51;;;;;;;8.40;5.70;;;;;;;;;;5055247;28;20450;-68
2022/05/27 00:03:18;;;;;;;6.90;6.00;;;;;;;;;;5055732;28;20438;-69
2022/05/27 00:05:45;;;;;;;7.33;6.30;;;;;;;;;;5055546;28;20454;-67
2022/05/27 00:08:14;;;;;;;7.67;6.10;;;;;;;;;;5055022;28;20449;-67
2022/05/27 00:10:41;;;;;;;9.50;6.03;;;;;;;;;;5055125;28;20805;-67
2022/05/27 00:13:09;;;;;;;6.03;5.47;;;;;;;;;;5055367;28;20456;-67
2022/05/27 00:15:36;;;;;;;12.10;7.23;;;;;;;;;;5055269;28;20449;-67
2022/05/27 00:18:03;;;;;;;8.40;5.47;;;;;;;;;;5055049;28;20443;-67
2022/05/27 00:20:31;;;;;;;6.27;5.60;;;;;;;;;;5054914;28;20897;-67
2022/05/27 00:22:58;;;;;;;8.63;5.70;;;;;;;;;;5054714;28;20962;-67
2022/05/27 00:25:26;;;;;;;6.20;5.57;;;;;;;;;;5055380;28;20451;-67
2022/05/27 00:27:54;;;;;;;5.37;4.87;;;;;;;;;;5055470;28;20470;-66
2022/05/27 00:30:21;;;;;;;9.73;5.47;;;;;;;;;;5054607;28;20448;-66
2022/05/27 00:32:48;;;;;;;7.87;4.93;;;;;;;;;;5054618;28;20942;-67
2022/05/27 00:35:15;;;;;;;5.57;4.80;;;;;;;;;;5054393;28;20524;-66
2022/05/27 00:37:43;;;;;;;6.07;5.57;;;;;;;;;;5055173;28;20533;-66
2022/05/27 00:40:12;;;;;;;5.90;5.30;;;;;;;;;;5054562;28;20473;-67
2022/05/27 00:42:41;;;;;;;5.20;4.70;;;;;;;;;;5054448;28;20809;-66
2022/05/27 00:45:13;;;;;;;8.47;6.17;;;;;;;;;;5054695;28;20444;-66
2022/05/27 00:47:40;;;;;;;5.77;5.00;;;;;;;;;;5054963;28;20426;-65
2022/05/27 00:50:10;;;;;;;9.73;6.10;;;;;;;;;;5054490;28;20461;-66
2022/05/27 00:52:38;;;;;;;6.07;5.57;;;;;;;;;;5054595;28;20450;-66
2022/05/27 00:55:07;;;;;;;7.97;5.93;;;;;;;;;;5054443;28;20449;-66
2022/05/27 00:57:37;;;;;;;7.13;6.50;;;;;;;;;;5055106;28;20442;-66
2022/05/27 01:00:08;;;;;;;9.50;6.33;;;;;;;;;;5053938;28;20508;-66
2022/05/27 01:02:35;;;;;;;6.00;5.50;;;;;;;;;;5054521;28;20433;-66
2022/05/27 01:05:04;;;;;;;7.33;6.07;;;;;;;;;;5054515;28;20459;-66
2022/05/27 01:07:31;;;;;;;8.50;6.00;;;;;;;;;;5054500;28;20443;-66
2022/05/27 01:09:58;;;;;;;6.73;6.10;;;;;;;;;;5054152;28;20441;-65
2022/05/27 01:12:33;;;;;;;8.67;6.77;;;;;;;;;;5053833;28;20433;-65
2022/05/27 01:15:07;;;;;;;7.73;6.70;;;;;;;;;;5053797;28;20434;-66
2022/05/27 01:17:39;;;;;;;7.83;6.83;;;;;;;;;;5054277;28;20428;-66
2022/05/27 01:20:21;;;;;;;10.20;7.37;;;;;;;;;;5053917;28;20470;-65
2022/05/27 01:22:59;;;;;;;9.73;7.27;;;;;;;;;;5053751;28;20423;-66
2022/05/27 01:25:45;;;;;;;8.77;7.13;;;;;;;;;;5054089;28;20459;-66
2022/05/27 01:28:25;;;;;;;9.20;8.33;;;;;;;;;;5053958;28;20855;-66
2022/05/27 01:30:56;;;;;;;10.80;8.10;;;;;;;;;;5053864;28;20433;-66
2022/05/27 01:33:29;;;;;;;8.90;8.10;;;;;;;;;;5054250;28;20876;-65
2022/05/27 01:36:00;;;;;;;10.37;7.40;;;;;;;;;;5053787;28;20576;-66
2022/05/27 01:38:32;;;;;;;8.50;7.60;;;;;;;;;;5054575;28;20436;-66
2022/05/27 01:41:03;;;;;;;8.47;7.30;;;;;;;;;;5053777;28;20426;-66
2022/05/27 01:43:35;;;;;;;9.40;7.27;;;;;;;;;;5053401;28;20434;-66
2022/05/27 01:46:06;;;;;;;15.60;7.67;;;;;;;;;;5053371;28;20431;-66
2022/05/27 01:48:36;;;;;;;9.77;8.23;;;;;;;;;;5053406;28;20434;-65
2022/05/27 01:51:06;;;;;;;10.13;8.50;;;;;;;;;;5053502;28;20445;-65
2022/05/27 01:53:36;;;;;;;11.20;8.80;;;;;;;;;;5054049;28;20434;-65
2022/05/27 01:56:07;;;;;;;9.77;8.37;;;;;;;;;;5053600;28;20451;-65
2022/05/27 01:58:36;;;;;;;10.07;8.63;;;;;;;;;;5053207;28;20514;-66
2022/05/27 02:01:07;;;;;;;9.43;8.47;;;;;;;;;;5053423;28;20441;-65
2022/05/27 02:03:37;;;;;;;11.93;8.60;;;;;;;;;;5053247;28;20429;-66
2022/05/27 02:06:06;;;;;;;12.23;10.90;;;;;;;;;;5053033;28;20450;-65
2022/05/27 02:08:35;;;;;;;14.30;10.23;;;;;;;;;;5053079;28;20450;-65
2022/05/27 02:11:03;;;;;;;10.83;8.83;;;;;;;;;;5053400;28;20445;-66
2022/05/27 02:13:33;;;;;;;11.27;10.00;;;;;;;;;;5053409;28;20466;-66
2022/05/27 02:16:01;;;;;;;12.47;11.23;;;;;;;;;;5053352;28;20426;-66
2022/05/27 02:18:32;;;;;;;12.47;11.17;;;;;;;;;;5053340;28;20438;-66
2022/05/27 02:21:01;;;;;;;13.53;10.67;;;;;;;;;;5052914;28;20430;-66
2022/05/27 02:23:31;;;;;;;10.60;9.50;;;;;;;;;;5053687;28;20441;-66
2022/05/27 02:25:59;;;;;;;13.33;10.03;;;;;;;;;;5053197;28;20437;-65
2022/05/27 02:28:28;;;;;;;12.43;10.10;;;;;;;;;;5052924;28;20923;-66
2022/05/27 02:30:57;;;;;;;9.20;8.33;;;;;;;;;;5053194;28;20791;-66
2022/05/27 02:36:14;;;;;;;8.27;7.37;;;;;;;;;;5052942;28;20485;-66
2022/05/27 02:38:41;;;;;;;9.07;8.03;;;;;;;;;;5053753;28;20766;-66
2022/05/27 02:41:12;;;;;;;8.43;6.83;;;;;;;;;;5052722;28;20938;-65
2022/05/27 02:43:52;;;;;;;7.70;5.83;;;;;;;;;;5053136;28;20432;-66
2022/05/27 02:46:25;;;;;;;6.40;5.80;;;;;;;;;;5053245;28;20429;-66
2022/05/27 02:48:57;;;;;;;7.90;6.10;;;;;;;;;;5053091;28;20444;-66
2022/05/27 02:51:29;;;;;;;6.60;6.10;;;;;;;;;;5052655;28;20434;-66
2022/05/27 02:54:02;;;;;;;9.50;5.70;;;;;;;;;;5053315;28;20429;-66
2022/05/27 02:56:32;;;;;;;7.23;5.93;;;;;;;;;;5052658;28;20859;-66
2022/05/27 02:59:00;;;;;;;5.97;5.37;;;;;;;;;;5052849;28;20460;-66
2022/05/27 03:01:27;;;;;;;6.13;5.43;;;;;;;;;;5052575;28;20449;-66
2022/05/27 03:03:55;;;;;;;7.43;6.17;;;;;;;;;;5052623;28;20919;-66
2022/05/27 03:06:36;;;;;;;7.37;6.67;;;;;;;;;;5052975;28;20516;-66
2022/05/27 03:09:06;;;;;;;6.47;5.87;;;;;;;;;;5052697;28;20493;-66
2022/05/27 03:11:40;;;;;;;6.83;6.33;;;;;;;;;;5053018;28;20433;-67
2022/05/27 03:14:14;;;;;;;7.70;6.97;;;;;;;;;;5052561;28;20914;-66
2022/05/27 03:16:49;;;;;;;8.03;7.37;;;;;;;;;;5056640;28;20425;-66
2022/05/27 03:19:25;;;;;;;7.07;6.43;;;;;;;;;;5056549;28;20583;-66
2022/05/27 03:21:57;;;;;;;7.83;7.03;;;;;;;;;;5056052;28;20910;-66
2022/05/27 03:24:42;;;;;;;8.47;7.37;;;;;;;;;;5056727;28;20433;-66
2022/05/27 03:27:14;;;;;;;8.47;7.67;;;;;;;;;;5056291;28;20437;-66
2022/05/27 03:29:46;;;;;;;8.83;7.90;;;;;;;;;;5056427;28;20429;-67
2022/05/27 03:32:16;;;;;;;11.00;8.43;;;;;;;;;;5056163;28;20837;-66
2022/05/27 03:34:45;;;;;;;9.27;8.47;;;;;;;;;;5056407;28;20932;-67
2022/05/27 03:37:17;;;;;;;9.30;8.50;;;;;;;;;;5055526;28;20477;-66
2022/05/27 03:39:46;;;;;;;9.00;7.93;;;;;;;;;;5056009;28;20469;-66
2022/05/27 03:42:13;;;;;;;9.47;8.63;;;;;;;;;;5054763;28;20446;-66
2022/05/27 03:44:49;;;;;;;8.80;8.00;;;;;;;;;;5055287;28;20445;-66
2022/05/27 03:47:17;;;;;;;11.80;8.37;;;;;;;;;;5055145;28;20499;-66
2022/05/27 03:49:44;;;;;;;12.33;8.40;;;;;;;;;;5055086;28;20445;-66
2022/05/27 03:52:15;;;;;;;12.83;7.90;;;;;;;;;;5055190;28;20524;-66
2022/05/27 03:54:44;;;;;;;11.03;8.03;;;;;;;;;;5054987;28;20911;-66
2022/05/27 03:57:12;;;;;;;13.27;7.90;;;;;;;;;;5055039;28;20444;-66
2022/05/27 03:59:39;;;;;;;8.77;7.90;;;;;;;;;;5056014;28;20488;-66
2022/05/27 04:02:06;;;;;;;9.50;8.67;;;;;;;;;;5055033;28;20445;-67
2022/05/27 04:04:33;;;;;;;9.57;7.40;;;;;;;;;;5055851;28;20468;-67
2022/05/27 04:07:00;;;;;;;14.30;8.87;;;;;;;;;;5055116;28;20450;-66
2022/05/27 04:09:28;;;;;;;9.00;8.20;;;;;;;;;;5055361;28;20434;-67
2022/05/27 04:11:56;;;;;;;8.13;7.43;;;;;;;;;;5055421;28;20529;-66
2022/05/27 04:14:24;;;;;;;8.83;8.00;;;;;;;;;;5055186;28;20441;-67
2022/05/27 04:16:51;;;;;;;8.83;7.90;;;;;;;;;;5054715;28;20438;-66
2022/05/27 04:19:19;;;;;;;10.27;9.10;;;;;;;;;;5054912;28;20824;-67
2022/05/27 04:21:46;;;;;;;9.60;8.30;;;;;;;;;;5054437;28;21001;-66
2022/05/27 04:24:13;;;;;;;9.63;8.40;;;;;;;;;;5054760;28;20449;-67
2022/05/27 04:26:40;;;;;;;9.83;8.83;;;;;;;;;;5054378;28;21018;-67
2022/05/27 04:29:09;;;;;;;10.57;9.57;;;;;;;;;;5054758;28;20442;-67
2022/05/27 04:31:36;;;;;;;11.90;9.77;;;;;;;;;;5054626;28;20530;-66
2022/05/27 04:34:08;;;;;;;10.10;9.10;;;;;;;;;;5054530;28;20433;-67
2022/05/27 04:36:35;;;;;;;8.80;7.80;;;;;;;;;;5054046;28;20832;-66
2022/05/27 04:39:02;;;;;;;17.20;9.10;;;;;;;;;;5054344;28;20441;-67
2022/05/27 04:41:29;;;;;;;9.47;8.60;;;;;;;;;;5054041;28;20480;-66
2022/05/27 04:43:58;;;;;;;9.00;8.20;;;;;;;;;;5054331;28;20930;-67
2022/05/27 04:46:27;;;;;;;9.30;8.20;;;;;;;;;;5054286;28;20478;-67
2022/05/27 04:48:54;;;;;;;9.53;8.60;;;;;;;;;;5054327;28;20471;-67
2022/05/27 04:51:21;;;;;;;8.40;7.50;;;;;;;;;;5054537;28;20448;-67
2022/05/27 04:53:48;;;;;;;9.60;7.93;;;;;;;;;;5054491;28;20812;-67
2022/05/27 04:56:16;;;;;;;8.50;7.80;;;;;;;;;;5054337;28;20798;-67
2022/05/27 04:58:43;;;;;;;12.63;8.67;;;;;;;;;;5054289;28;20441;-67
2022/05/27 05:01:10;;;;;;;10.53;7.80;;;;;;;;;;5054024;28;20469;-67
2022/05/27 05:03:40;;;;;;;9.53;8.20;;;;;;;;;;5053818;28;20939;-67
2022/05/27 05:06:07;;;;;;;9.30;8.40;;;;;;;;;;5054709;28;20540;-67
2022/05/27 05:08:38;;;;;;;9.10;7.53;;;;;;;;;;5054391;28;20827;-66
2022/05/27 05:11:06;;;;;;;8.10;7.40;;;;;;;;;;5054414;28;20451;-67
2022/05/27 05:13:34;;;;;;;10.10;8.63;;;;;;;;;;5053852;28;20922;-67
2022/05/27 05:16:02;;;;;;;7.63;6.87;;;;;;;;;;5053681;28;20927;-67
2022/05/27 05:18:29;;;;;;;7.70;7.00;;;;;;;;;;5053423;28;20445;-67
2022/05/27 05:20:59;;;;;;;8.80;7.77;;;;;;;;;;5053700;28;20981;-69
2022/05/27 05:23:26;;;;;;;9.53;7.47;;;;;;;;;;5053726;28;20439;-69
2022/05/27 05:25:53;;;;;;;12.50;7.67;;;;;;;;;;5054277;28;20448;-68
2022/05/27 05:28:20;;;;;;;12.97;7.73;;;;;;;;;;5053767;28;20450;-68
2022/05/27 05:30:47;;;;;;;11.33;7.53;;;;;;;;;;5053530;28;20482;-66
2022/05/27 05:33:14;;;;;;;8.40;6.57;;;;;;;;;;5053306;28;20959;-68
2022/05/27 05:35:42;;;;;;;9.33;7.20;;;;;;;;;;5053463;28;20475;-69
2022/05/27 05:38:10;;;;;;;8.23;7.47;;;;;;;;;;5052347;28;20858;-69
2022/05/27 05:40:38;;;;;;;6.13;5.53;;;;;;;;;;5053931;28;20478;-70
2022/05/27 05:43:05;;;;;;;7.97;6.80;;;;;;;;;;5053255;28;20445;-71
2022/05/27 05:45:32;;;;;;;7.70;6.50;;;;;;;;;;5053344;28;20799;-69
2022/05/27 05:48:00;;;;;;;7.57;6.10;;;;;;;;;;5053275;28;20446;-67
2022/05/27 05:50:28;;;;;;;11.90;5.80;;;;;;;;;;5053755;28;20453;-69
2022/05/27 05:52:55;;;;;;;12.77;7.00;;;;;;;;;;5053517;28;20481;-68
2022/05/27 05:55:24;;;;;;;6.80;6.20;;;;;;;;;;5053178;28;20442;-68
2022/05/27 05:57:51;;;;;;;6.40;5.07;;;;;;;;;;5053378;28;20439;-68
2022/05/27 06:00:20;;;;;;;7.60;4.90;;;;;;;;;;5053064;28;20812;-69
2022/05/27 06:02:47;;;;;;;6.37;5.00;;;;;;;;;;5053850;28;20521;-68
2022/05/27 06:05:14;;;;;;;8.90;6.00;;;;;;;;;;5053353;28;20455;-68
2022/05/27 06:07:42;;;;;;;11.73;5.73;;;;;;;;;;5052873;28;20433;-68
2022/05/27 06:10:10;;;;;;;6.60;4.57;;;;;;;;;;5053326;28;20447;-69
2022/05/27 06:12:39;;;;;;;7.40;5.50;;;;;;;;;;5053126;28;20435;-68
2022/05/27 06:15:07;;;;;;;9.67;5.83;;;;;;;;;;5052999;28;20447;-69
2022/05/27 06:17:35;;;;;;;6.83;5.67;;;;;;;;;;5053171;28;20439;-67
2022/05/27 06:20:02;;;;;;;14.80;5.13;;;;;;;;;;5053716;28;20442;-68
2022/05/27 06:22:29;;;;;;;8.90;5.17;;;;;;;;;;5053019;28;21007;-68
2022/05/27 06:24:58;;;;;;;14.80;5.80;;;;;;;;;;5053448;28;20543;-68
2022/05/27 06:27:25;;;;;;;6.70;5.40;;;;;;;;;;5053220;28;20460;-69
2022/05/27 06:35:24;;;;;;;6.30;3.73;;;;;;;;;;5052745;28;20943;-68
2022/05/27 06:37:51;;;;;;;6.27;3.90;;;;;;;;;;5053438;28;20521;-68
2022/05/27 06:40:18;;;;;;;8.67;4.60;;;;;;;;;;5052970;28;20472;-68
2022/05/27 06:42:46;;;;;;;5.37;4.13;;;;;;;;;;5053857;28;20447;-68
2022/05/27 06:45:14;;;;;;;7.60;4.30;;;;;;;;;;5052952;28;20525;-68
2022/05/27 06:47:42;;;;;;;6.77;3.60;;;;;;;;;;5053068;28;20832;-68
2022/05/27 06:50:10;;;;;;;8.43;5.53;;;;;;;;;;5056002;28;20439;-69
2022/05/27 06:52:39;;;;;;;6.00;4.20;;;;;;;;;;5056097;28;20447;-68
2022/05/27 06:55:07;;;;;;;8.20;4.50;;;;;;;;;;5056856;28;20476;-68
2022/05/27 06:57:35;;;;;;;7.17;3.70;;;;;;;;;;5056754;28;20444;-68
2022/05/27 07:00:02;;;;;;;8.43;3.80;;;;;;;;;;5056150;28;20452;-68
2022/05/27 07:02:31;;;;;;;8.90;5.13;;;;;;;;;;5056519;28;20468;-68
2022/05/27 07:04:58;;;;;;;10.47;4.20;;;;;;;;;;5056411;28;20453;-68
2022/05/27 07:07:29;;;;;;;6.37;3.70;;;;;;;;;;5056510;28;20442;-69
2022/05/27 07:09:56;;;;;;;6.63;3.43;;;;;;;;;;5056635;28;20803;-68
2022/05/27 07:12:23;;;;;;;7.50;3.80;;;;;;;;;;5055850;28;20536;-68
2022/05/27 07:14:51;;;;;;;7.50;4.63;;;;;;;;;;5055833;28;20962;-69
2022/05/27 07:17:18;;;;;;;4.67;3.00;;;;;;;;;;5056116;28;20446;-68
2022/05/27 07:19:47;;;;;;;6.80;3.27;;;;;;;;;;5056439;28;20515;-69
2022/05/27 07:22:15;;;;;;;8.77;3.23;;;;;;;;;;5056215;28;20829;-69
2022/05/27 07:24:42;;;;;;;10.37;3.50;;;;;;;;;;5055906;28;20491;-68
2022/05/27 07:27:10;;;;;;;4.13;2.30;;;;;;;;;;5056165;28;20970;-68
2022/05/27 07:29:37;;;;;;;10.07;3.03;;;;;;;;;;5056085;28;20450;-68
2022/05/27 07:32:05;;;;;;;8.00;3.07;;;;;;;;;;5055733;28;20455;-69
2022/05/27 07:34:32;;;;;;;9.13;3.70;;;;;;;;;;5055577;28;20450;-68
2022/05/27 07:37:01;;;;;;;6.00;3.10;;;;;;;;;;5056661;28;20465;-68
2022/05/27 07:39:28;;;;;;;6.47;2.90;;;;;;;;;;5055516;28;20487;-68
2022/05/27 07:41:55;;;;;;;5.00;2.13;;;;;;;;;;5056168;28;20803;-69
2022/05/27 07:44:23;;;;;;;14.77;3.90;;;;;;;;;;5055540;28;20479;-68
2022/05/27 07:46:53;;;;;;;5.67;2.60;;;;;;;;;;5055751;28;20478;-69
2022/05/27 07:49:20;;;;;;;10.40;3.00;;;;;;;;;;5056401;28;20422;-69
2022/05/27 07:51:47;;;;;;;8.93;2.80;;;;;;;;;;5055107;28;20486;-68
2022/05/27 07:54:16;;;;;;;9.80;3.40;;;;;;;;;;5055061;28;20951;-68
2022/05/27 07:56:43;;;;;;;7.20;2.47;;;;;;;;;;5055614;28;20448;-68
2022/05/27 07:59:10;;;;;;;9.03;2.67;;;;;;;;;;5055148;28;20474;-68
2022/05/27 08:01:39;;;;;;;10.00;3.00;;;;;;;;;;5054602;28;20490;-68
2022/05/27 08:04:06;;;;;;;9.17;2.73;;;;;;;;;;5055595;28;20442;-68
2022/05/27 08:06:34;;;;;;;11.87;2.90;;;;;;;;;;5055090;28;20922;-68
2022/05/27 08:09:01;;;;;;;8.37;3.40;;;;;;;;;;5055331;28;20450;-68
2022/05/27 08:11:29;;;;;;;4.97;2.77;;;;;;;;;;5055724;28;20457;-68
2022/05/27 08:13:57;;;;;;;9.10;3.33;;;;;;;;;;5054456;28;20445;-68
2022/05/27 08:16:24;;;;;;;4.97;2.60;;;;;;;;;;5054862;28;20995;-68
2022/05/27 08:18:51;;;;;;;8.23;3.43;;;;;;;;;;5055756;28;20554;-68
2022/05/27 08:21:18;;;;;;;6.43;2.80;;;;;;;;;;5055018;28;20489;-68
2022/05/27 08:23:46;;;;;;;8.10;3.13;;;;;;;;;;5055167;28;20869;-68
2022/05/27 08:26:13;;;;;;;5.43;2.90;;;;;;;;;;5054717;28;20438;-68
2022/05/27 08:28:42;;;;;;;7.67;2.73;;;;;;;;;;5055011;28;20452;-68
2022/05/27 08:31:10;;;;;;;7.80;2.50;;;;;;;;;;5054917;28;20799;-69
2022/05/27 08:39:09;;;;;;;7.57;2.47;;;;;;;;;;5055007;28;20397;-68
2022/05/27 08:41:53;;;;;;;7.07;2.57;;;;;;;;;;5054603;28;20478;-68
2022/05/27 08:44:27;;;;;;;5.97;2.80;;;;;;;;;;5054411;28;20523;-68
2022/05/27 08:46:59;;;;;;;4.30;2.27;;;;;;;;;;5054322;28;20431;-68
2022/05/27 08:49:28;;;;;;;8.40;2.77;;;;;;;;;;5054360;28;20926;-67
2022/05/27 08:51:58;;;;;;;6.70;2.67;;;;;;;;;;5054538;28;20458;-68
2022/05/27 08:54:28;;;;;;;4.10;2.53;;;;;;;;;;5055024;28;20426;-68
2022/05/27 08:59:46;;;;;;;6.97;3.07;;;;;;;;;;5053412;28;20421;-68
2022/05/27 09:02:18;;;;;;;2.43;2.27;;;;;;;;;;5054005;28;20820;-68
2022/05/27 09:04:48;;;;;;;10.23;2.60;;;;;;;;;;5054818;28;20446;-68
2022/05/27 09:07:22;;;;;;;4.70;2.70;;;;;;;;;;5054254;28;20919;-68
2022/05/27 09:09:49;;;;;;;7.33;3.20;;;;;;;;;;5054750;28;20437;-68
2022/05/27 09:12:26;;;;;;;6.20;3.60;;;;;;;;;;5053026;28;20454;-68
2022/05/27 09:14:59;;;;;;;11.17;3.10;;;;;;;;;;5053948;28;20435;-68
2022/05/27 09:17:29;;;;;;;11.53;3.70;;;;;;;;;;5054123;28;20522;-68
2022/05/27 09:20:01;;;;;;;9.90;3.47;;;;;;;;;;5053557;28;20438;-68
2022/05/27 09:22:33;;;;;;;9.27;3.97;;;;;;;;;;5053740;28;20518;-68
2022/05/27 09:25:04;;;;;;;10.10;3.60;;;;;;;;;;5053730;28;20436;-68
2022/05/27 09:27:37;;;;;;;9.10;3.00;;;;;;;;;;5053990;28;20753;-68
2022/05/27 09:30:09;;;;;;;8.70;3.77;;;;;;;;;;5054222;28;20452;-68
2022/05/27 09:32:42;;;;;;;9.83;3.40;;;;;;;;;;5053745;28;20434;-68
2022/05/27 09:35:12;;;;;;;10.47;4.00;;;;;;;;;;5053863;28;20446;-69
2022/05/27 09:37:43;;;;;;;12.07;2.47;;;;;;;;;;5053530;28;20461;-69
2022/05/27 09:40:13;;;;;;;9.13;3.00;;;;;;;;;;5053678;28;20428;-67
2022/05/27 09:42:43;;;;;;;9.40;3.10;;;;;;;;;;5053175;28;20912;-69
2022/05/27 09:45:12;;;;;;;9.20;3.07;;;;;;;;;;5053592;28;20431;-69
2022/05/27 09:47:41;;;;;;;8.03;3.00;;;;;;;;;;5052941;28;20449;-68
2022/05/27 09:50:11;;;;;;;5.63;2.53;;;;;;;;;;5053664;28;20478;-69
2022/05/27 09:52:42;;;;;;;6.17;3.23;;;;;;;;;;5052695;28;20538;-68
2022/05/27 09:55:17;;;;;;;8.53;2.90;;;;;;;;;;5052616;28;20523;-68
2022/05/27 09:57:55;;;;;;;6.57;2.73;;;;;;;;;;5053413;28;20437;-68
2022/05/27 10:00:36;;;;;;;4.27;2.30;;;;;;;;;;5053058;28;20449;-68
2022/05/27 10:03:20;;;;;;;3.20;2.70;;;;;;;;;;5052798;28;20989;-68
2022/05/27 10:05:51;;;;;;;9.40;2.87;;;;;;;;;;5053824;28;20468;-69
2022/05/27 10:08:26;;;;;;;15.30;3.10;;;;;;;;;;5053609;28;20487;-69
2022/05/27 10:11:06;;;;;;;7.37;3.63;;;;;;;;;;5053634;28;20435;-69
2022/05/27 10:13:34;;;;;;;8.30;3.03;;;;;;;;;;5053699;28;20441;-69
2022/05/27 10:16:08;;;;;;;10.60;2.90;;;;;;;;;;5053085;28;20457;-69
2022/05/27 10:18:35;;;;;;;4.80;3.30;;;;;;;;;;5053430;28;20789;-69
2022/05/27 10:21:06;;;;;;;7.23;3.10;;;;;;;;;;5052452;28;20461;-68
2022/05/27 10:23:35;;;;;;;6.77;2.90;;;;;;;;;;5053479;28;20428;-69
2022/05/27 10:26:19;;;;;;;9.53;3.80;;;;;;;;;;5057472;28;20833;-68
2022/05/27 10:28:56;;;;;;;9.40;2.90;;;;;;;;;;5057625;28;20434;-69
2022/05/27 10:31:25;;;;;;;7.47;2.70;;;;;;;;;;5057253;28;20536;-68
2022/05/27 10:33:53;;;;;;;5.27;2.70;;;;;;;;;;5057132;28;20532;-68
2022/05/27 10:36:35;;;;;;;8.30;3.33;;;;;;;;;;5056694;28;20478;-68
2022/05/27 10:39:03;;;;;;;5.67;3.00;;;;;;;;;;5056793;28;20926;-69
2022/05/27 10:41:34;;;;;;;6.30;3.80;;;;;;;;;;5056315;28;20917;-68
2022/05/27 10:44:10;;;;;;;6.67;3.00;;;;;;;;;;5057072;28;20439;-69
2022/05/27 10:46:43;;;;;;;12.03;3.50;;;;;;;;;;5056600;28;20517;-69
2022/05/27 10:49:27;;;;;;;10.83;3.47;;;;;;;;;;5056666;28;20907;-69
2022/05/27 10:52:01;;;;;;;9.50;2.97;;;;;;;;;;5056919;28;20519;-69
2022/05/27 10:54:34;;;;;;;5.13;3.00;;;;;;;;;;5057157;28;20481;-69
2022/05/27 11:03:04;;;;;;;8.90;3.60;;;;;;;;;;5056712;28;20455;-69
2022/05/27 11:05:40;;;;;;;11.33;3.30;;;;;;;;;;5051738;28;20458;-70
2022/05/27 11:08:20;;;;;;;9.30;3.77;;;;;;;;;;5056871;28;20425;-69
2022/05/27 11:10:52;;;;;;;6.93;3.17;;;;;;;;;;5056231;28;20513;-69
2022/05/27 11:16:28;;;;;;;7.87;3.40;;;;;;;;;;5056465;28;20444;-69
2022/05/27 11:19:04;;;;;;;8.83;3.30;;;;;;;;;;5056494;28;20552;-69
2022/05/27 11:21:44;;;;;;;5.50;3.40;;;;;;;;;;5056697;28;20763;-69
2022/05/27 11:24:16;;;;;;;8.57;3.47;;;;;;;;;;5056454;28;20429;-69
2022/05/27 11:26:50;;;;;;;10.20;3.50;;;;;;;;;;5056200;28;20439;-68
2022/05/27 11:29:30;;;;;;;12.23;4.13;;;;;;;;;;5056400;28;20432;-68
2022/05/27 11:32:02;;;;;;;9.53;3.43;;;;;;;;;;5056194;28;20446;-69
2022/05/27 11:34:32;;;;;;;8.40;3.10;;;;;;;;;;5056057;28;20423;-68
2022/05/27 11:37:18;;;;;;;9.50;3.10;;;;;;;;;;5055314;28;20822;-68
2022/05/27 11:40:00;;;;;;;6.23;3.03;;;;;;;;;;5046354;28;20457;-68
2022/05/27 11:42:39;;;;;;;5.83;3.37;;;;;;;;;;5053459;28;20561;-68
2022/05/27 11:45:11;;;;;;;7.77;3.70;;;;;;;;;;5056040;28;20784;-68
2022/05/27 11:47:54;;;;;;;11.50;3.43;;;;;;;;;;5055610;28;20431;-68
2022/05/27 11:50:28;;;;;;;7.70;4.17;;;;;;;;;;5054799;28;20459;-68
2022/05/27 11:53:04;;;;;;;8.53;3.40;;;;;;;;;;5055772;28;20908;-68
2022/05/27 11:55:49;;;;;;;7.13;3.87;;;;;;;;;;5055399;28;20434;-68
2022/05/27 11:58:20;;;;;;;8.13;2.80;;;;;;;;;;5055586;28;20435;-68
2022/05/27 12:00:50;;;;;;;8.57;3.77;;;;;;;;;;5055640;28;20524;-68
2022/05/27 12:03:21;;;;;;;6.30;2.80;;;;;;;;;;5055407;28;20991;-69
2022/05/27 12:05:49;;;;;;;6.60;2.60;;;;;;;;;;5055030;28;20466;-69
2022/05/27 12:08:22;;;;;;;9.17;3.30;;;;;;;;;;5055605;28;20439;-69
2022/05/27 12:10:51;;;;;;;9.07;2.90;;;;;;;;;;5055712;28;20435;-69
2022/05/27 12:13:24;;;;;;;5.30;2.30;;;;;;;;;;5054985;28;20481;-69
2022/05/27 12:15:53;;;;;;;8.13;3.23;;;;;;;;;;5055847;28;20435;-69
2022/05/27 12:18:24;;;;;;;5.80;2.83;;;;;;;;;;5055221;28;20853;-69
2022/05/27 12:20:52;;;;;;;12.20;3.77;;;;;;;;;;5055469;28;20537;-69
2022/05/27 12:23:22;;;;;;;16.10;3.33;;;;;;;;;;5055073;28;20478;-70
2022/05/27 12:25:52;;;;;;;14.03;3.63;;;;;;;;;;5055102;28;20439;-70
2022/05/27 12:28:22;;;;;;;9.60;2.80;;;;;;;;;;5055217;28;20451;-69
2022/05/27 12:30:51;;;;;;;6.80;3.60;;;;;;;;;;5055308;28;20445;-70
2022/05/27 12:33:19;;;;;;;6.70;3.07;;;;;;;;;;5054567;28;20448;-70
2022/05/27 12:35:53;;;;;;;8.37;3.27;;;;;;;;;;5054444;28;20484;-70
2022/05/27 12:38:24;;;;;;;7.53;2.90;;;;;;;;;;5055082;28;20432;-69
2022/05/27 12:40:53;;;;;;;8.10;2.70;;;;;;;;;;5053094;28;20440;-69
2022/05/27 12:43:27;;;;;;;12.87;4.50;;;;;;;;;;5053763;28;20221;-69
2022/05/27 12:45:56;;;;;;;4.13;2.97;;;;;;;;;;5054029;28;20514;-68
2022/05/27 12:48:31;;;;;;;8.07;3.17;;;;;;;;;;5054125;28;20531;-69
2022/05/27 12:51:00;;;;;;;10.47;3.87;;;;;;;;;;5054271;28;20450;-70
2022/05/27 12:53:39;;;;;;;5.57;2.73;;;;;;;;;;5054244;28;20534;-68
2022/05/27 13:02:37;;;;;;;6.00;3.07;;;;;;;;;;5053818;28;20474;-69
2022/05/27 13:05:06;;;;;;;5.90;3.00;;;;;;;;;;5053862;28;20443;-69
2022/05/27 13:07:44;;;;;;;9.33;4.10;;;;;;;;;;5053757;28;20528;-70
2022/05/27 13:10:26;;;;;;;8.03;2.70;;;;;;;;;;5053747;28;20439;-69
2022/05/27 13:12:57;;;;;;;8.07;3.10;;;;;;;;;;5041426;28;20454;-67
2022/05/27 13:15:31;;;;;;;8.00;2.97;;;;;;;;;;5053418;28;20523;-68
2022/05/27 13:18:09;;;;;;;5.13;3.60;;;;;;;;;;5053785;28;20429;-68
2022/05/27 13:20:51;;;;;;;4.63;2.63;;;;;;;;;;5054556;28;20427;-68
2022/05/27 13:23:19;;;;;;;5.60;2.20;;;;;;;;;;5054117;28;20463;-67
2022/05/27 13:25:51;;;;;;;7.27;3.20;;;;;;;;;;5053893;28;20463;-68
2022/05/27 13:28:27;;;;;;;10.10;3.53;;;;;;;;;;5053381;28;20928;-68
2022/05/27 13:30:58;;;;;;;6.57;3.30;;;;;;;;;;5054180;28;20437;-68
2022/05/27 13:33:27;;;;;;;7.73;3.23;;;;;;;;;;5053376;28;20490;-68
2022/05/27 13:35:56;;;;;;;5.43;2.87;;;;;;;;;;5053090;28;20909;-68
2022/05/27 13:38:26;;;;;;;4.83;2.53;;;;;;;;;;5053639;28;20454;-69
2022/05/27 13:40:53;;;;;;;5.10;3.10;;;;;;;;;;5053443;28;20453;-69
2022/05/27 13:43:23;;;;;;;10.73;3.30;;;;;;;;;;5053537;28;20570;-70
2022/05/27 13:45:53;;;;;;;7.17;3.00;;;;;;;;;;5053575;28;20494;-68
2022/05/27 13:48:23;;;;;;;6.20;2.40;;;;;;;;;;5053679;28;20430;-69
2022/05/27 13:50:50;;;;;;;6.90;2.87;;;;;;;;;;5053278;28;20425;-68
2022/05/27 13:53:24;;;;;;;6.80;2.97;;;;;;;;;;5053305;28;20542;-69
2022/05/27 13:55:53;;;;;;;7.50;2.40;;;;;;;;;;5052810;28;20474;-69
2022/05/27 13:58:20;;;;;;;5.20;2.80;;;;;;;;;;5053177;28;20447;-69
2022/05/27 14:00:48;;;;;;;6.40;2.57;;;;;;;;;;5053278;28;20439;-68
2022/05/27 14:03:26;;;;;;;9.10;3.10;;;;;;;;;;5053350;28;20565;-68
2022/05/27 14:06:01;;;;;;;8.50;3.40;;;;;;;;;;5052951;28;20467;-68
2022/05/27 14:08:37;;;;;;;11.80;3.00;;;;;;;;;;5052871;28;20518;-69
2022/05/27 14:11:07;;;;;;;6.97;2.63;;;;;;;;;;5052382;28;20973;-68
2022/05/27 14:13:34;;;;;;;7.20;2.83;;;;;;;;;;5052590;28;20502;-68
2022/05/27 14:16:01;;;;;;;6.93;3.13;;;;;;;;;;5052458;28;20447;-69
2022/05/27 14:18:30;;;;;;;7.10;2.60;;;;;;;;;;5053220;28;20445;-68
2022/05/27 14:23:46;;;;;;;10.80;3.10;;;;;;;;;;5053091;28;20530;-69
2022/05/27 14:26:13;;;;;;;6.67;3.33;;;;;;;;;;5052763;28;20440;-69
2022/05/27 14:28:43;;;;;;;7.37;3.20;;;;;;;;;;5052702;28;20519;-69
2022/05/27 14:31:12;;;;;;;10.10;3.13;;;;;;;;;;5053216;28;20433;-68
2022/05/27 14:33:42;;;;;;;9.10;3.30;;;;;;;;;;5052475;28;20450;-68
2022/05/27 14:36:09;;;;;;;5.53;2.73;;;;;;;;;;5052377;28;20475;-68
2022/05/27 14:38:38;;;;;;;9.53;3.40;;;;;;;;;;5053200;28;20538;-68
2022/05/27 14:41:09;;;;;;;10.03;3.37;;;;;;;;;;5052527;28;20440;-68
2022/05/27 14:43:39;;;;;;;13.27;3.60;;;;;;;;;;5053413;28;20467;-68
2022/05/27 14:46:13;;;;;;;10.10;3.20;;;;;;;;;;5052523;28;21002;-69
2022/05/27 14:48:41;;;;;;;6.57;2.87;;;;;;;;;;5053002;28;20783;-68
2022/05/27 14:51:27;;;;;;;5.57;3.00;;;;;;;;;;5052661;28;20774;-68
2022/05/27 14:53:55;;;;;;;4.80;2.17;;;;;;;;;;5052585;28;20464;-69
2022/05/27 14:56:25;;;;;;;7.03;3.00;;;;;;;;;;5052199;28;20449;-69
2022/05/27 14:58:53;;;;;;;8.43;3.30;;;;;;;;;;5053260;28;20440;-68
2022/05/27 15:01:28;;;;;;;9.57;3.93;;;;;;;;;;5052718;28;20446;-68
2022/05/27 15:04:13;;;;;;;9.60;3.90;;;;;;;;;;5052757;28;20459;-68
2022/05/27 15:06:42;;;;;;;8.10;3.40;;;;;;;;;;5052348;28;20447;-66
2022/05/27 15:09:12;;;;;;;4.50;2.27;;;;;;;;;;5052573;28;20463;-72
2022/05/27 15:11:42;;;;;;;10.97;3.50;;;;;;;;;;5055924;28;20535;-72
2022/05/27 15:14:23;;;;;;;7.27;2.80;;;;;;;;;;5056124;28;20446;-71
2022/05/27 15:17:01;;;;;;;4.20;1.83;;;;;;;;;;5055703;28;20931;-72
2022/05/27 15:19:30;;;;;;;3.67;2.40;;;;;;;;;;5056588;28;20455;-70
2022/05/27 15:22:03;;;;;;;7.47;2.93;;;;;;;;;;5056075;28;20447;-69
2022/05/27 15:24:35;;;;;;;5.80;2.27;;;;;;;;;;5056396;28;20462;-70
2022/05/27 15:35:27;;;;;;;10.00;2.80;;;;;;;;;;5055621;28;20434;-67
2022/05/27 15:37:54;;;;;;;3.40;1.80;;;;;;;;;;5055631;28;20431;-67
2022/05/27 15:40:21;;;;;;;7.60;2.43;;;;;;;;;;5055968;28;20527;-69
2022/05/27 15:42:50;;;;;;;3.20;2.13;;;;;;;;;;5055400;28;20444;-67